sensor_id;sensor_type;location;lat;lon;timestamp;temperature;humidity
43997;DHT22;34318;45.818;15.964;2022-07-03T00:01:36;24.70;63.10
43997;DHT22;34318;45.818;15.964;2022-07-03T00:04:03;24.60;62.80
43997;DHT22;34318;45.818;15.964;2022-07-03T00:06:31;24.50;62.70
43997;DHT22;34318;45.818;15.964;2022-07-03T00:08:59;24.50;62.30
43997;DHT22;34318;45.818;15.964;2022-07-03T00:11:26;24.60;62.00
43997;DHT22;34318;45.818;15.964;2022-07-03T00:13:53;24.70;61.90
43997;DHT22;34318;45.818;15.964;2022-07-03T00:16:20;24.80;61.90
43997;DHT22;34318;45.818;15.964;2022-07-03T00:18:47;24.70;61.50
43997;DHT22;34318;45.818;15.964;2022-07-03T00:21:20;24.70;61.60
43997;DHT22;34318;45.818;15.964;2022-07-03T00:23:56;24.60;61.30
43997;DHT22;34318;45.818;15.964;2022-07-03T00:26:37;24.50;61.70
43997;DHT22;34318;45.818;15.964;2022-07-03T00:29:06;24.70;61.50
43997;DHT22;34318;45.818;15.964;2022-07-03T00:31:35;24.50;61.60
43997;DHT22;34318;45.818;15.964;2022-07-03T00:34:02;24.70;60.80
43997;DHT22;34318;45.818;15.964;2022-07-03T00:36:37;24.60;61.00
43997;DHT22;34318;45.818;15.964;2022-07-03T00:39:05;24.60;61.50
43997;DHT22;34318;45.818;15.964;2022-07-03T00:41:34;24.70;61.00
43997;DHT22;34318;45.818;15.964;2022-07-03T00:44:03;24.60;61.00
43997;DHT22;34318;45.818;15.964;2022-07-03T00:46:30;24.40;61.60
43997;DHT22;34318;45.818;15.964;2022-07-03T00:48:58;24.30;62.00
43997;DHT22;34318;45.818;15.964;2022-07-03T00:51:27;24.20;62.10
43997;DHT22;34318;45.818;15.964;2022-07-03T00:53:56;24.30;62.10
43997;DHT22;34318;45.818;15.964;2022-07-03T00:56:29;24.50;61.40
43997;DHT22;34318;45.818;15.964;2022-07-03T00:59:00;24.50;61.30
43997;DHT22;34318;45.818;15.964;2022-07-03T01:01:33;24.60;61.10
43997;DHT22;34318;45.818;15.964;2022-07-03T01:06:52;24.30;61.60
43997;DHT22;34318;45.818;15.964;2022-07-03T01:09:30;24.40;61.30
43997;DHT22;34318;45.818;15.964;2022-07-03T01:12:04;24.40;61.10
43997;DHT22;34318;45.818;15.964;2022-07-03T01:14:43;24.40;60.70
43997;DHT22;34318;45.818;15.964;2022-07-03T01:17:24;24.30;61.20
43997;DHT22;34318;45.818;15.964;2022-07-03T01:19:57;24.40;61.00
43997;DHT22;34318;45.818;15.964;2022-07-03T01:22:54;24.30;61.30
43997;DHT22;34318;45.818;15.964;2022-07-03T01:25:26;24.20;61.90
43997;DHT22;34318;45.818;15.964;2022-07-03T01:28:14;24.30;61.30
43997;DHT22;34318;45.818;15.964;2022-07-03T01:30:53;24.30;60.80
43997;DHT22;34318;45.818;15.964;2022-07-03T01:33:30;24.40;60.90
43997;DHT22;34318;45.818;15.964;2022-07-03T01:36:13;24.30;60.80
43997;DHT22;34318;45.818;15.964;2022-07-03T01:38:42;24.10;61.60
43997;DHT22;34318;45.818;15.964;2022-07-03T01:41:11;24.10;61.60
43997;DHT22;34318;45.818;15.964;2022-07-03T01:43:47;24.10;61.50
43997;DHT22;34318;45.818;15.964;2022-07-03T01:46:18;24.10;61.60
43997;DHT22;34318;45.818;15.964;2022-07-03T01:48:48;24.10;61.30
43997;DHT22;34318;45.818;15.964;2022-07-03T01:51:17;24.30;60.90
43997;DHT22;34318;45.818;15.964;2022-07-03T01:53:49;24.30;60.70
43997;DHT22;34318;45.818;15.964;2022-07-03T01:56:18;24.20;60.80
43997;DHT22;34318;45.818;15.964;2022-07-03T01:58:45;24.30;60.60
43997;DHT22;34318;45.818;15.964;2022-07-03T02:01:25;24.40;60.30
43997;DHT22;34318;45.818;15.964;2022-07-03T02:06:39;24.20;60.90
43997;DHT22;34318;45.818;15.964;2022-07-03T02:09:08;24.10;61.20
43997;DHT22;34318;45.818;15.964;2022-07-03T02:11:51;24.10;60.90
43997;DHT22;34318;45.818;15.964;2022-07-03T02:14:23;23.90;61.60
43997;DHT22;34318;45.818;15.964;2022-07-03T02:22:20;24.10;61.00
43997;DHT22;34318;45.818;15.964;2022-07-03T02:24:47;24.00;61.00
43997;DHT22;34318;45.818;15.964;2022-07-03T02:27:23;23.90;61.70
43997;DHT22;34318;45.818;15.964;2022-07-03T02:30:01;23.70;62.30
43997;DHT22;34318;45.818;15.964;2022-07-03T02:32:32;23.60;62.50
43997;DHT22;34318;45.818;15.964;2022-07-03T02:35:04;23.80;61.70
43997;DHT22;34318;45.818;15.964;2022-07-03T02:37:53;23.80;62.00
43997;DHT22;34318;45.818;15.964;2022-07-03T02:45:36;23.70;62.20
43997;DHT22;34318;45.818;15.964;2022-07-03T02:48:16;23.70;62.40
43997;DHT22;34318;45.818;15.964;2022-07-03T02:50:47;23.60;62.90
43997;DHT22;34318;45.818;15.964;2022-07-03T02:53:27;23.80;62.00
43997;DHT22;34318;45.818;15.964;2022-07-03T02:56:15;23.80;61.70
43997;DHT22;34318;45.818;15.964;2022-07-03T03:04:21;23.40;63.50
43997;DHT22;34318;45.818;15.964;2022-07-03T03:06:55;23.50;63.00
43997;DHT22;34318;45.818;15.964;2022-07-03T03:09:29;23.70;62.70
43997;DHT22;34318;45.818;15.964;2022-07-03T03:12:01;23.70;62.70
43997;DHT22;34318;45.818;15.964;2022-07-03T03:14:38;23.60;63.00
43997;DHT22;34318;45.818;15.964;2022-07-03T03:17:07;23.50;63.70
43997;DHT22;34318;45.818;15.964;2022-07-03T03:19:40;23.70;62.80
43997;DHT22;34318;45.818;15.964;2022-07-03T03:24:51;23.80;62.90
43997;DHT22;34318;45.818;15.964;2022-07-03T03:27:19;23.60;62.60
43997;DHT22;34318;45.818;15.964;2022-07-03T03:29:46;23.50;63.20
43997;DHT22;34318;45.818;15.964;2022-07-03T03:32:14;23.70;63.30
43997;DHT22;34318;45.818;15.964;2022-07-03T03:34:43;23.60;63.20
43997;DHT22;34318;45.818;15.964;2022-07-03T03:37:12;23.70;62.80
43997;DHT22;34318;45.818;15.964;2022-07-03T03:39:39;23.70;62.80
43997;DHT22;34318;45.818;15.964;2022-07-03T03:42:06;23.70;62.80
43997;DHT22;34318;45.818;15.964;2022-07-03T03:44:33;23.70;62.80
43997;DHT22;34318;45.818;15.964;2022-07-03T03:47:00;23.60;62.80
43997;DHT22;34318;45.818;15.964;2022-07-03T03:49:28;23.60;62.80
43997;DHT22;34318;45.818;15.964;2022-07-03T03:51:56;23.60;63.20
43997;DHT22;34318;45.818;15.964;2022-07-03T03:54:23;23.60;63.10
43997;DHT22;34318;45.818;15.964;2022-07-03T03:56:50;23.60;63.20
43997;DHT22;34318;45.818;15.964;2022-07-03T03:59:17;23.60;63.10
43997;DHT22;34318;45.818;15.964;2022-07-03T04:01:43;23.60;63.50
43997;DHT22;34318;45.818;15.964;2022-07-03T04:04:13;23.60;63.30
43997;DHT22;34318;45.818;15.964;2022-07-03T04:06:44;23.60;63.50
43997;DHT22;34318;45.818;15.964;2022-07-03T04:09:11;23.50;63.80
43997;DHT22;34318;45.818;15.964;2022-07-03T04:11:38;23.60;63.90
43997;DHT22;34318;45.818;15.964;2022-07-03T04:14:05;23.50;64.30
43997;DHT22;34318;45.818;15.964;2022-07-03T04:16:33;23.50;64.20
43997;DHT22;34318;45.818;15.964;2022-07-03T04:19:01;23.50;64.30
43997;DHT22;34318;45.818;15.964;2022-07-03T04:21:28;23.40;64.40
43997;DHT22;34318;45.818;15.964;2022-07-03T04:23:55;23.50;64.50
43997;DHT22;34318;45.818;15.964;2022-07-03T04:26:21;23.30;65.50
43997;DHT22;34318;45.818;15.964;2022-07-03T04:28:48;23.20;66.20
43997;DHT22;34318;45.818;15.964;2022-07-03T04:31:15;23.40;65.50
43997;DHT22;34318;45.818;15.964;2022-07-03T04:33:42;23.30;66.00
43997;DHT22;34318;45.818;15.964;2022-07-03T04:36:13;23.20;66.40
43997;DHT22;34318;45.818;15.964;2022-07-03T04:38:40;23.20;66.50
43997;DHT22;34318;45.818;15.964;2022-07-03T04:41:07;23.30;66.40
43997;DHT22;34318;45.818;15.964;2022-07-03T04:43:34;23.10;67.40
43997;DHT22;34318;45.818;15.964;2022-07-03T04:46:01;23.10;67.70
43997;DHT22;34318;45.818;15.964;2022-07-03T04:48:29;23.20;67.30
43997;DHT22;34318;45.818;15.964;2022-07-03T04:50:56;23.40;66.70
43997;DHT22;34318;45.818;15.964;2022-07-03T04:53:24;23.50;66.80
43997;DHT22;34318;45.818;15.964;2022-07-03T04:55:51;23.20;67.90
43997;DHT22;34318;45.818;15.964;2022-07-03T04:58:18;23.30;67.50
43997;DHT22;34318;45.818;15.964;2022-07-03T05:00:45;23.40;67.60
43997;DHT22;34318;45.818;15.964;2022-07-03T05:03:12;23.30;68.20
43997;DHT22;34318;45.818;15.964;2022-07-03T05:05:39;23.50;68.30
43997;DHT22;34318;45.818;15.964;2022-07-03T05:08:06;23.60;68.50
43997;DHT22;34318;45.818;15.964;2022-07-03T05:10:33;23.50;69.30
43997;DHT22;34318;45.818;15.964;2022-07-03T05:13:00;23.60;69.60
43997;DHT22;34318;45.818;15.964;2022-07-03T05:15:27;23.70;69.10
43997;DHT22;34318;45.818;15.964;2022-07-03T05:17:53;23.80;69.00
43997;DHT22;34318;45.818;15.964;2022-07-03T05:20:20;23.80;69.50
43997;DHT22;34318;45.818;15.964;2022-07-03T05:23:01;23.90;69.60
43997;DHT22;34318;45.818;15.964;2022-07-03T05:25:29;23.90;70.00
43997;DHT22;34318;45.818;15.964;2022-07-03T05:27:57;23.80;70.50
43997;DHT22;34318;45.818;15.964;2022-07-03T05:30:25;23.90;71.20
43997;DHT22;34318;45.818;15.964;2022-07-03T05:32:53;24.00;71.40
43997;DHT22;34318;45.818;15.964;2022-07-03T05:35:20;23.80;72.30
43997;DHT22;34318;45.818;15.964;2022-07-03T05:37:47;23.90;72.20
43997;DHT22;34318;45.818;15.964;2022-07-03T05:40:14;24.10;71.80
43997;DHT22;34318;45.818;15.964;2022-07-03T05:42:41;24.30;71.30
43997;DHT22;34318;45.818;15.964;2022-07-03T05:45:09;24.00;74.60
43997;DHT22;34318;45.818;15.964;2022-07-03T05:47:36;24.00;74.50
43997;DHT22;34318;45.818;15.964;2022-07-03T05:50:03;24.10;74.70
43997;DHT22;34318;45.818;15.964;2022-07-03T05:52:30;24.00;73.40
43997;DHT22;34318;45.818;15.964;2022-07-03T05:54:57;24.00;74.00
43997;DHT22;34318;45.818;15.964;2022-07-03T05:57:24;24.40;71.90
43997;DHT22;34318;45.818;15.964;2022-07-03T05:59:57;24.40;69.50
43997;DHT22;34318;45.818;15.964;2022-07-03T06:02:24;24.40;69.00
43997;DHT22;34318;45.818;15.964;2022-07-03T06:04:51;24.40;67.80
43997;DHT22;34318;45.818;15.964;2022-07-03T06:07:17;24.70;65.10
43997;DHT22;34318;45.818;15.964;2022-07-03T06:09:44;25.00;63.50
43997;DHT22;34318;45.818;15.964;2022-07-03T06:12:12;25.10;63.30
43997;DHT22;34318;45.818;15.964;2022-07-03T06:14:39;25.30;59.70
43997;DHT22;34318;45.818;15.964;2022-07-03T06:17:06;25.40;58.80
43997;DHT22;34318;45.818;15.964;2022-07-03T06:19:34;25.20;60.60
43997;DHT22;34318;45.818;15.964;2022-07-03T06:22:01;25.20;60.20
43997;DHT22;34318;45.818;15.964;2022-07-03T06:24:27;25.50;59.70
43997;DHT22;34318;45.818;15.964;2022-07-03T06:26:55;25.60;59.70
43997;DHT22;34318;45.818;15.964;2022-07-03T06:29:22;25.70;58.90
43997;DHT22;34318;45.818;15.964;2022-07-03T06:31:49;25.80;57.90
43997;DHT22;34318;45.818;15.964;2022-07-03T06:34:16;26.00;57.00
43997;DHT22;34318;45.818;15.964;2022-07-03T06:36:43;26.00;56.60
43997;DHT22;34318;45.818;15.964;2022-07-03T06:39:09;26.00;56.80
43997;DHT22;34318;45.818;15.964;2022-07-03T06:41:36;26.00;56.60
43997;DHT22;34318;45.818;15.964;2022-07-03T06:44:03;26.00;57.60
43997;DHT22;34318;45.818;15.964;2022-07-03T06:46:30;26.10;57.20
43997;DHT22;34318;45.818;15.964;2022-07-03T06:48:57;26.10;57.50
43997;DHT22;34318;45.818;15.964;2022-07-03T06:51:24;26.30;57.10
43997;DHT22;34318;45.818;15.964;2022-07-03T06:53:51;26.40;57.10
43997;DHT22;34318;45.818;15.964;2022-07-03T06:56:18;26.40;56.20
43997;DHT22;34318;45.818;15.964;2022-07-03T06:58:45;26.50;56.60
43997;DHT22;34318;45.818;15.964;2022-07-03T07:01:12;26.50;56.30
43997;DHT22;34318;45.818;15.964;2022-07-03T07:03:39;26.50;56.30
43997;DHT22;34318;45.818;15.964;2022-07-03T07:06:06;26.60;56.20
43997;DHT22;34318;45.818;15.964;2022-07-03T07:08:33;26.70;55.80
43997;DHT22;34318;45.818;15.964;2022-07-03T07:11:00;26.70;55.90
43997;DHT22;34318;45.818;15.964;2022-07-03T07:13:28;26.70;55.80
43997;DHT22;34318;45.818;15.964;2022-07-03T07:15:55;26.80;55.60
43997;DHT22;34318;45.818;15.964;2022-07-03T07:18:21;26.80;55.50
43997;DHT22;34318;45.818;15.964;2022-07-03T07:20:48;26.80;55.40
43997;DHT22;34318;45.818;15.964;2022-07-03T07:23:18;26.90;55.50
43997;DHT22;34318;45.818;15.964;2022-07-03T07:25:44;26.90;55.40
43997;DHT22;34318;45.818;15.964;2022-07-03T07:28:11;27.00;54.80
43997;DHT22;34318;45.818;15.964;2022-07-03T07:30:39;27.00;54.70
43997;DHT22;34318;45.818;15.964;2022-07-03T07:33:07;27.00;54.50
43997;DHT22;34318;45.818;15.964;2022-07-03T07:35:34;27.10;54.70
43997;DHT22;34318;45.818;15.964;2022-07-03T07:38:02;27.10;55.00
43997;DHT22;34318;45.818;15.964;2022-07-03T07:40:35;27.00;55.00
43997;DHT22;34318;45.818;15.964;2022-07-03T07:43:02;27.10;55.00
43997;DHT22;34318;45.818;15.964;2022-07-03T07:45:29;27.10;55.30
43997;DHT22;34318;45.818;15.964;2022-07-03T07:47:56;27.20;55.30
43997;DHT22;34318;45.818;15.964;2022-07-03T07:50:23;27.20;55.40
43997;DHT22;34318;45.818;15.964;2022-07-03T07:52:50;27.20;55.90
43997;DHT22;34318;45.818;15.964;2022-07-03T07:55:16;27.30;55.10
43997;DHT22;34318;45.818;15.964;2022-07-03T07:57:44;27.30;55.10
43997;DHT22;34318;45.818;15.964;2022-07-03T08:00:15;27.30;54.80
43997;DHT22;34318;45.818;15.964;2022-07-03T08:02:44;27.40;55.60
43997;DHT22;34318;45.818;15.964;2022-07-03T08:05:30;27.40;55.10
43997;DHT22;34318;45.818;15.964;2022-07-03T08:08:16;27.50;55.10
43997;DHT22;34318;45.818;15.964;2022-07-03T08:10:46;27.50;55.30
43997;DHT22;34318;45.818;15.964;2022-07-03T08:13:16;27.50;55.10
43997;DHT22;34318;45.818;15.964;2022-07-03T08:15:44;27.50;55.40
43997;DHT22;34318;45.818;15.964;2022-07-03T08:18:12;27.50;55.10
43997;DHT22;34318;45.818;15.964;2022-07-03T08:20:41;27.50;54.80
43997;DHT22;34318;45.818;15.964;2022-07-03T08:23:09;27.60;54.70
43997;DHT22;34318;45.818;15.964;2022-07-03T08:25:36;27.60;54.30
43997;DHT22;34318;45.818;15.964;2022-07-03T08:28:03;27.50;54.30
43997;DHT22;34318;45.818;15.964;2022-07-03T08:30:31;27.60;54.50
43997;DHT22;34318;45.818;15.964;2022-07-03T08:32:58;27.60;54.60
43997;DHT22;34318;45.818;15.964;2022-07-03T08:35:26;27.60;54.40
43997;DHT22;34318;45.818;15.964;2022-07-03T08:37:53;27.60;54.40
43997;DHT22;34318;45.818;15.964;2022-07-03T08:40:21;27.60;54.10
43997;DHT22;34318;45.818;15.964;2022-07-03T08:42:57;27.60;54.20
43997;DHT22;34318;45.818;15.964;2022-07-03T08:45:24;27.60;54.10
43997;DHT22;34318;45.818;15.964;2022-07-03T08:47:54;27.70;54.30
43997;DHT22;34318;45.818;15.964;2022-07-03T08:50:21;27.70;54.40
43997;DHT22;34318;45.818;15.964;2022-07-03T08:52:49;27.70;54.50
43997;DHT22;34318;45.818;15.964;2022-07-03T08:55:17;27.70;54.60
43997;DHT22;34318;45.818;15.964;2022-07-03T08:57:46;27.70;54.70
43997;DHT22;34318;45.818;15.964;2022-07-03T09:00:16;27.70;54.80
43997;DHT22;34318;45.818;15.964;2022-07-03T09:02:46;27.70;54.50
43997;DHT22;34318;45.818;15.964;2022-07-03T09:05:14;27.70;54.70
43997;DHT22;34318;45.818;15.964;2022-07-03T09:07:43;27.70;54.80
43997;DHT22;34318;45.818;15.964;2022-07-03T09:10:19;27.70;54.70
43997;DHT22;34318;45.818;15.964;2022-07-03T09:12:47;27.80;54.60
43997;DHT22;34318;45.818;15.964;2022-07-03T09:15:15;27.80;54.60
43997;DHT22;34318;45.818;15.964;2022-07-03T09:18:03;27.80;54.60
43997;DHT22;34318;45.818;15.964;2022-07-03T09:20:38;27.70;54.40
43997;DHT22;34318;45.818;15.964;2022-07-03T09:23:19;27.70;54.00
43997;DHT22;34318;45.818;15.964;2022-07-03T09:26:03;27.70;54.30
43997;DHT22;34318;45.818;15.964;2022-07-03T09:28:48;27.70;54.40
43997;DHT22;34318;45.818;15.964;2022-07-03T09:31:22;27.80;54.70
43997;DHT22;34318;45.818;15.964;2022-07-03T09:34:02;27.70;55.00
43997;DHT22;34318;45.818;15.964;2022-07-03T09:36:46;27.80;55.00
43997;DHT22;34318;45.818;15.964;2022-07-03T09:42:01;27.80;55.20
43997;DHT22;34318;45.818;15.964;2022-07-03T09:44:36;27.80;55.20
43997;DHT22;34318;45.818;15.964;2022-07-03T09:49:49;27.80;55.40
43997;DHT22;34318;45.818;15.964;2022-07-03T09:52:35;27.80;55.30
43997;DHT22;34318;45.818;15.964;2022-07-03T10:03:09;27.80;55.90
43997;DHT22;34318;45.818;15.964;2022-07-03T10:05:41;28.00;55.80
43997;DHT22;34318;45.818;15.964;2022-07-03T10:08:13;28.00;55.50
43997;DHT22;34318;45.818;15.964;2022-07-03T10:10:43;28.00;55.30
43997;DHT22;34318;45.818;15.964;2022-07-03T10:13:11;28.10;55.40
43997;DHT22;34318;45.818;15.964;2022-07-03T10:15:39;28.00;55.80
43997;DHT22;34318;45.818;15.964;2022-07-03T10:18:11;28.00;55.80
43997;DHT22;34318;45.818;15.964;2022-07-03T10:20:38;28.00;55.90
43997;DHT22;34318;45.818;15.964;2022-07-03T10:23:06;28.10;56.10
43997;DHT22;34318;45.818;15.964;2022-07-03T10:25:33;28.00;56.00
43997;DHT22;34318;45.818;15.964;2022-07-03T10:28:01;28.10;56.80
43997;DHT22;34318;45.818;15.964;2022-07-03T10:30:28;28.10;56.30
43997;DHT22;34318;45.818;15.964;2022-07-03T10:32:56;28.10;56.30
43997;DHT22;34318;45.818;15.964;2022-07-03T10:35:34;28.00;56.30
43997;DHT22;34318;45.818;15.964;2022-07-03T10:41:03;28.10;56.40
43997;DHT22;34318;45.818;15.964;2022-07-03T10:43:52;28.10;56.50
43997;DHT22;34318;45.818;15.964;2022-07-03T10:46:55;28.10;56.70
43997;DHT22;34318;45.818;15.964;2022-07-03T10:49:29;28.10;56.80
43997;DHT22;34318;45.818;15.964;2022-07-03T10:52:03;28.10;56.90
43997;DHT22;34318;45.818;15.964;2022-07-03T10:54:35;28.10;57.00
43997;DHT22;34318;45.818;15.964;2022-07-03T10:57:07;28.10;57.00
43997;DHT22;34318;45.818;15.964;2022-07-03T11:02:25;28.10;57.00
43997;DHT22;34318;45.818;15.964;2022-07-03T11:15:28;28.10;57.30
43997;DHT22;34318;45.818;15.964;2022-07-03T11:23:28;28.20;59.60
43997;DHT22;34318;45.818;15.964;2022-07-03T11:26:22;28.20;59.50
43997;DHT22;34318;45.818;15.964;2022-07-03T11:28:54;28.20;61.10
43997;DHT22;34318;45.818;15.964;2022-07-03T11:31:22;28.20;61.60
43997;DHT22;34318;45.818;15.964;2022-07-03T11:33:59;28.20;62.20
43997;DHT22;34318;45.818;15.964;2022-07-03T11:36:32;28.30;64.10
43997;DHT22;34318;45.818;15.964;2022-07-03T11:41:31;28.30;64.60
43997;DHT22;34318;45.818;15.964;2022-07-03T11:44:10;28.30;64.80
43997;DHT22;34318;45.818;15.964;2022-07-03T11:46:40;28.30;65.40
43997;DHT22;34318;45.818;15.964;2022-07-03T11:49:18;28.40;66.60
43997;DHT22;34318;45.818;15.964;2022-07-03T11:52:02;28.30;65.50
43997;DHT22;34318;45.818;15.964;2022-07-03T11:54:32;28.40;65.50
43997;DHT22;34318;45.818;15.964;2022-07-03T11:57:00;28.30;64.90
43997;DHT22;34318;45.818;15.964;2022-07-03T11:59:27;28.40;64.60
43997;DHT22;34318;45.818;15.964;2022-07-03T12:02:01;28.30;64.10
43997;DHT22;34318;45.818;15.964;2022-07-03T12:04:29;28.30;64.30
43997;DHT22;34318;45.818;15.964;2022-07-03T12:06:58;28.30;63.80
43997;DHT22;34318;45.818;15.964;2022-07-03T12:09:26;28.30;63.60
43997;DHT22;34318;45.818;15.964;2022-07-03T12:12:04;28.30;63.60
43997;DHT22;34318;45.818;15.964;2022-07-03T12:17:02;28.30;63.60
43997;DHT22;34318;45.818;15.964;2022-07-03T12:19:29;28.40;63.40
43997;DHT22;34318;45.818;15.964;2022-07-03T12:21:56;28.40;63.20
43997;DHT22;34318;45.818;15.964;2022-07-03T12:24:23;28.30;62.90
43997;DHT22;34318;45.818;15.964;2022-07-03T12:26:50;28.40;62.90
43997;DHT22;34318;45.818;15.964;2022-07-03T12:29:17;28.40;62.80
43997;DHT22;34318;45.818;15.964;2022-07-03T12:31:48;28.40;62.90
43997;DHT22;34318;45.818;15.964;2022-07-03T12:34:16;28.40;62.80
43997;DHT22;34318;45.818;15.964;2022-07-03T12:36:57;28.40;63.00
43997;DHT22;34318;45.818;15.964;2022-07-03T12:39:44;28.40;63.20
43997;DHT22;34318;45.818;15.964;2022-07-03T12:42:19;28.40;63.10
43997;DHT22;34318;45.818;15.964;2022-07-03T12:45:01;28.40;63.30
43997;DHT22;34318;45.818;15.964;2022-07-03T12:47:30;28.40;64.20
43997;DHT22;34318;45.818;15.964;2022-07-03T12:50:02;28.30;63.50
43997;DHT22;34318;45.818;15.964;2022-07-03T12:52:30;28.30;63.40
43997;DHT22;34318;45.818;15.964;2022-07-03T12:54:59;28.30;63.30
43997;DHT22;34318;45.818;15.964;2022-07-03T12:57:26;28.30;63.30
43997;DHT22;34318;45.818;15.964;2022-07-03T13:00:14;28.30;63.20
43997;DHT22;34318;45.818;15.964;2022-07-03T13:02:49;28.30;63.30
43997;DHT22;34318;45.818;15.964;2022-07-03T13:05:19;28.30;63.30
43997;DHT22;34318;45.818;15.964;2022-07-03T13:07:48;28.20;63.40
43997;DHT22;34318;45.818;15.964;2022-07-03T13:10:17;28.30;63.50
43997;DHT22;34318;45.818;15.964;2022-07-03T13:12:55;28.30;63.40
43997;DHT22;34318;45.818;15.964;2022-07-03T13:15:29;28.20;63.60
43997;DHT22;34318;45.818;15.964;2022-07-03T13:17:58;28.20;63.60
43997;DHT22;34318;45.818;15.964;2022-07-03T13:20:28;28.20;63.70
43997;DHT22;34318;45.818;15.964;2022-07-03T13:22:57;28.30;63.70
43997;DHT22;34318;45.818;15.964;2022-07-03T13:25:24;28.20;63.60
43997;DHT22;34318;45.818;15.964;2022-07-03T13:27:51;28.20;63.70
43997;DHT22;34318;45.818;15.964;2022-07-03T13:30:19;28.30;63.60
43997;DHT22;34318;45.818;15.964;2022-07-03T13:32:46;28.30;63.60
43997;DHT22;34318;45.818;15.964;2022-07-03T13:35:13;28.30;63.80
43997;DHT22;34318;45.818;15.964;2022-07-03T13:37:40;28.30;63.80
43997;DHT22;34318;45.818;15.964;2022-07-03T13:40:07;28.30;63.60
43997;DHT22;34318;45.818;15.964;2022-07-03T13:42:35;28.30;63.60
43997;DHT22;34318;45.818;15.964;2022-07-03T13:45:02;28.30;63.70
43997;DHT22;34318;45.818;15.964;2022-07-03T13:47:29;28.30;63.80
43997;DHT22;34318;45.818;15.964;2022-07-03T13:49:56;28.30;64.00
43997;DHT22;34318;45.818;15.964;2022-07-03T13:52:23;28.30;64.00
43997;DHT22;34318;45.818;15.964;2022-07-03T13:54:49;28.20;64.00
43997;DHT22;34318;45.818;15.964;2022-07-03T13:57:17;28.30;64.00
43997;DHT22;34318;45.818;15.964;2022-07-03T13:59:44;28.30;64.10
43997;DHT22;34318;45.818;15.964;2022-07-03T14:02:11;28.30;64.10
43997;DHT22;34318;45.818;15.964;2022-07-03T14:04:38;28.30;64.00
43997;DHT22;34318;45.818;15.964;2022-07-03T14:07:05;28.30;64.00
43997;DHT22;34318;45.818;15.964;2022-07-03T14:09:32;28.30;64.10
43997;DHT22;34318;45.818;15.964;2022-07-03T14:11:59;28.30;64.20
43997;DHT22;34318;45.818;15.964;2022-07-03T14:14:26;28.30;64.20
43997;DHT22;34318;45.818;15.964;2022-07-03T14:16:52;28.30;64.30
43997;DHT22;34318;45.818;15.964;2022-07-03T14:19:19;28.30;64.30
43997;DHT22;34318;45.818;15.964;2022-07-03T14:21:46;28.30;64.30
43997;DHT22;34318;45.818;15.964;2022-07-03T14:24:13;28.30;64.40
43997;DHT22;34318;45.818;15.964;2022-07-03T14:26:40;28.30;64.40
43997;DHT22;34318;45.818;15.964;2022-07-03T14:29:26;28.30;64.50
43997;DHT22;34318;45.818;15.964;2022-07-03T14:32:11;28.30;64.60
43997;DHT22;34318;45.818;15.964;2022-07-03T14:34:59;28.40;64.70
43997;DHT22;34318;45.818;15.964;2022-07-03T14:37:28;28.30;64.70
43997;DHT22;34318;45.818;15.964;2022-07-03T14:39:55;28.40;65.10
43997;DHT22;34318;45.818;15.964;2022-07-03T14:42:22;28.30;65.20
43997;DHT22;34318;45.818;15.964;2022-07-03T14:44:50;28.30;65.60
43997;DHT22;34318;45.818;15.964;2022-07-03T14:47:17;28.30;65.60
43997;DHT22;34318;45.818;15.964;2022-07-03T14:49:45;28.40;65.80
43997;DHT22;34318;45.818;15.964;2022-07-03T14:52:12;28.40;65.90
43997;DHT22;34318;45.818;15.964;2022-07-03T14:54:40;28.40;66.00
43997;DHT22;34318;45.818;15.964;2022-07-03T14:58:00;28.40;65.80
43997;DHT22;34318;45.818;15.964;2022-07-03T15:00:19;28.40;65.90
43997;DHT22;34318;45.818;15.964;2022-07-03T15:05:30;28.40;65.80
43997;DHT22;34318;45.818;15.964;2022-07-03T15:10:46;28.40;66.00
43997;DHT22;34318;45.818;15.964;2022-07-03T15:13:14;28.40;66.10
43997;DHT22;34318;45.818;15.964;2022-07-03T15:15:42;28.40;66.20
43997;DHT22;34318;45.818;15.964;2022-07-03T15:18:14;28.40;66.20
43997;DHT22;34318;45.818;15.964;2022-07-03T15:20:42;28.40;66.40
43997;DHT22;34318;45.818;15.964;2022-07-03T15:23:10;28.40;66.50
43997;DHT22;34318;45.818;15.964;2022-07-03T15:25:48;28.40;66.50
43997;DHT22;34318;45.818;15.964;2022-07-03T15:28:16;28.50;66.80
43997;DHT22;34318;45.818;15.964;2022-07-03T15:30:48;28.40;66.60
43997;DHT22;34318;45.818;15.964;2022-07-03T15:33:16;28.50;67.30
43997;DHT22;34318;45.818;15.964;2022-07-03T15:35:49;28.50;66.90
43997;DHT22;34318;45.818;15.964;2022-07-03T15:38:25;28.50;66.80
43997;DHT22;34318;45.818;15.964;2022-07-03T15:40:59;28.50;66.80
43997;DHT22;34318;45.818;15.964;2022-07-03T15:49:27;28.60;67.10
43997;DHT22;34318;45.818;15.964;2022-07-03T15:55:32;28.60;66.90
43997;DHT22;34318;45.818;15.964;2022-07-03T15:57:39;28.50;67.20
43997;DHT22;34318;45.818;15.964;2022-07-03T16:00:15;28.50;67.20
43997;DHT22;34318;45.818;15.964;2022-07-03T16:05:26;28.50;67.10
43997;DHT22;34318;45.818;15.964;2022-07-03T16:07:54;28.60;67.30
43997;DHT22;34318;45.818;15.964;2022-07-03T16:10:22;28.50;67.50
43997;DHT22;34318;45.818;15.964;2022-07-03T16:12:49;28.50;67.50
43997;DHT22;34318;45.818;15.964;2022-07-03T16:15:16;28.50;67.50
43997;DHT22;34318;45.818;15.964;2022-07-03T16:17:45;28.50;68.20
43997;DHT22;34318;45.818;15.964;2022-07-03T16:20:14;28.60;67.50
43997;DHT22;34318;45.818;15.964;2022-07-03T16:22:41;28.50;67.50
43997;DHT22;34318;45.818;15.964;2022-07-03T16:25:08;28.50;67.70
43997;DHT22;34318;45.818;15.964;2022-07-03T16:27:35;28.60;67.70
43997;DHT22;34318;45.818;15.964;2022-07-03T16:30:04;28.60;67.70
43997;DHT22;34318;45.818;15.964;2022-07-03T16:32:37;28.50;67.70
43997;DHT22;34318;45.818;15.964;2022-07-03T16:35:10;28.60;67.90
43997;DHT22;34318;45.818;15.964;2022-07-03T16:37:51;28.60;67.70
43997;DHT22;34318;45.818;15.964;2022-07-03T16:40:19;28.60;67.20
43997;DHT22;34318;45.818;15.964;2022-07-03T16:42:48;28.60;67.00
43997;DHT22;34318;45.818;15.964;2022-07-03T16:45:16;28.60;66.90
43997;DHT22;34318;45.818;15.964;2022-07-03T16:47:47;28.60;67.00
43997;DHT22;34318;45.818;15.964;2022-07-03T16:50:22;28.60;67.20
43997;DHT22;34318;45.818;15.964;2022-07-03T16:52:53;28.60;67.20
43997;DHT22;34318;45.818;15.964;2022-07-03T16:55:21;28.60;67.60
43997;DHT22;34318;45.818;15.964;2022-07-03T16:57:54;28.50;67.50